Decker Prairie, Texas
Current Conditions -  °F | °C
As of 12:53 AM on Sunday 21 Dec 2014 (Local Time) from KDWH Reporting Station
Overcast Overcast  
Wind Chill: 51°   Ceiling: 2100
Heat Index: 51°   Visibility: 10mi
Dew Point: 45°   Wind: 7mph
Humidity: 80%   Direction: 80°E
Pressure: 30.17"   Gusts: NA
Location:  30.2162°N, 95.7526°W
Report Text: KDWH 210653Z 08006KT 10SM OVC021 11/07 A3017 RMK AO2 SLP215 T01060072
Loading
Personal Weather Stations






























Interactive Weather Map New forecast layout! Learn more

10-Day Weather Forecast

Advertisements
Track Severe Weather on mobile